»·PEaware :: N335AK KSAC-O46

N335AK :: KSAC-O46

FLIGHT INFORMATION

Flight Status: Arrived
Operator: Privately registered:
United States
More flights under this callsign
Pilot: Gabor H. (24209)
Aircraft: Unknown
(EPIC)
More flights by this aircraft type
Origin: KSAC Sacramento Executive
United States
Destination: O46 Weed
United States
More flights between these airports :: More routes between these airports
Route: +SAC V23 FJS
File this flight plan on PilotEdge
Remarks:
Altitude:
(Current/Filed)
14,000ft
Speed:
(Current/Filed)
325kts
Departed: 22-Jul-20 10:20 AM
Arrived: 22-Jul-20 11:04 AM
Distance/Time
Traveled:
183nm/0:44
Distance/Time
To Go:
Arrived

Flight Plot

Page will automatically refresh every two minutes.

Flight plan parsing failed; only flown route is shown


Map Options




Map Legend


Flown Route
Filed Route
Departure Airport
Arrival Airport
Navaid (VOR, NDB)
Fix

Horizontal Profiles

Position Reports

Time Latitude Longitude Heading Altitude Ground
Speed
22-Jul-20 10:02 38.514770 -121.498394 226 23ft 0kts
22-Jul-20 10:03 38.514770 -121.498394 226 23ft 0kts
22-Jul-20 10:04 38.514770 -121.498394 226 23ft 0kts
22-Jul-20 10:05 38.514770 -121.498394 226 23ft 0kts
22-Jul-20 10:06 38.514770 -121.498394 226 23ft 0kts
22-Jul-20 10:07 38.514770 -121.498394 226 23ft 0kts
22-Jul-20 10:08 38.514770 -121.498394 226 23ft 0kts
22-Jul-20 10:09 38.514770 -121.498394 226 23ft 0kts
22-Jul-20 10:10 38.514770 -121.498394 226 23ft 0kts
22-Jul-20 10:11 38.514770 -121.498394 226 23ft 0kts
22-Jul-20 10:12 38.514770 -121.498394 226 23ft 0kts
22-Jul-20 10:13 38.514770 -121.498394 226 23ft 0kts
22-Jul-20 10:14 38.514770 -121.498394 226 23ft 0kts
22-Jul-20 10:15 38.514770 -121.498394 226 23ft 0kts
22-Jul-20 10:16 38.513805 -121.495276 34 24ft 15kts
22-Jul-20 10:17 38.518785 -121.491210 31 25ft 13kts
22-Jul-20 10:18 38.519208 -121.490494 104 25ft 0kts
22-Jul-20 10:19 38.516355 -121.491452 214 25ft 75kts
22-Jul-20 10:20 38.499390 -121.539032 263 1565ft 201kts
22-Jul-20 10:21 38.493260 -121.612923 263 4055ft 216kts
22-Jul-20 10:22 38.527466 -121.667057 341 5943ft 246kts
22-Jul-20 10:23 38.591104 -121.684189 21 8823ft 233kts
22-Jul-20 10:24 38.647464 -121.646731 34 11811ft 230kts
22-Jul-20 10:25 38.710570 -121.637323 347 13965ft 267kts
22-Jul-20 10:26 38.790399 -121.662159 345 13993ft 313kts
22-Jul-20 10:28 38.876776 -121.689816 345 13991ft 324kts
22-Jul-20 10:29 38.964460 -121.718047 345 13990ft 325kts
22-Jul-20 10:30 39.052154 -121.746332 345 13989ft 325kts
22-Jul-20 10:31 39.139149 -121.774440 345 13989ft 324kts
22-Jul-20 10:32 39.227008 -121.802907 345 14009ft 327kts
22-Jul-20 10:33 39.315765 -121.831736 345 14014ft 330kts
22-Jul-20 10:34 39.401418 -121.873532 338 14017ft 331kts
22-Jul-20 10:35 39.486758 -121.917502 338 14017ft 331kts
22-Jul-20 10:36 39.572123 -121.961617 338 14017ft 331kts
22-Jul-20 10:37 39.657567 -122.005892 338 14017ft 331kts
22-Jul-20 10:38 39.743072 -122.050318 338 14017ft 331kts
22-Jul-20 10:39 39.828363 -122.094746 338 14017ft 331kts
22-Jul-20 10:40 39.913846 -122.139394 338 14017ft 331kts
22-Jul-20 10:41 39.999094 -122.184040 338 14015ft 331kts
22-Jul-20 10:42 40.084585 -122.228934 338 14001ft 332kts
22-Jul-20 10:43 40.169762 -122.265765 342 13990ft 332kts
22-Jul-20 10:43 40.243554 -122.296356 342 13989ft 332kts
22-Jul-20 10:45 40.346335 -122.339077 342 13989ft 333kts
22-Jul-20 10:46 40.434553 -122.375854 342 13989ft 333kts
22-Jul-20 10:46 40.507771 -122.406454 342 13990ft 333kts
22-Jul-20 10:47 40.595937 -122.443381 342 13990ft 333kts
22-Jul-20 10:49 40.698650 -122.486540 342 13990ft 333kts
22-Jul-20 10:49 40.771985 -122.517450 342 13990ft 333kts
22-Jul-20 10:50 40.862239 -122.555543 342 12818ft 336kts
22-Jul-20 10:51 40.946608 -122.591280 342 11406ft 309kts
22-Jul-20 10:52 41.023033 -122.589019 42 10954ft 284kts
22-Jul-20 10:53 41.079798 -122.516950 44 10959ft 286kts
22-Jul-20 10:54 41.138587 -122.447295 36 10949ft 293kts
22-Jul-20 10:55 41.207383 -122.390853 22 10282ft 288kts
22-Jul-20 10:56 41.281837 -122.374208 4 8772ft 263kts
22-Jul-20 10:57 41.353215 -122.369051 355 7267ft 252kts
22-Jul-20 10:58 41.417558 -122.390053 338 5742ft 222kts
22-Jul-20 10:59 41.469554 -122.417867 338 4608ft 165kts
22-Jul-20 11:00 41.506522 -122.436851 338 4511ft 142kts
22-Jul-20 11:01 41.519058 -122.467553 236 4537ft 112kts
22-Jul-20 11:02 41.491560 -122.460439 154 3104ft 104kts
22-Jul-20 11:03 41.480431 -122.454863 237 2940ft 0kts
22-Jul-20 11:04 41.478191 -122.454498 159 2940ft 11kts
22-Jul-20 11:05 41.476473 -122.453927 171 2940ft 0kts
22-Jul-20 11:06 41.476473 -122.453927 171 2940ft 0kts
22-Jul-20 11:07 41.476473 -122.453927 171 2940ft 0kts
22-Jul-20 11:08 41.476473 -122.453927 171 2940ft 0kts
22-Jul-20 11:09 41.476473 -122.453927 171 2940ft 0kts
22-Jul-20 11:10 41.476473 -122.453927 171 2940ft 0kts
22-Jul-20 11:11 41.476473 -122.453927 171 2940ft 0kts
22-Jul-20 11:12 41.476473 -122.453927 171 2940ft 0kts
22-Jul-20 11:13 41.476473 -122.453927 171 2940ft 0kts
22-Jul-20 11:14 41.476473 -122.453927 171 2940ft 0kts
22-Jul-20 11:15 41.476473 -122.453927 171 2940ft 0kts
22-Jul-20 11:16 41.476473 -122.453927 171 2940ft 0kts
22-Jul-20 11:17 41.476473 -122.453927 171 2940ft 0kts

Navigation Log

Ident Type
Flight plan parsing failed, navigation log unavailable